Time,TemperatureF,DewpointF,PressureIn,WindDirection,WindDirectionDegrees,WindSpeedMPH,WindSpeedGustMPH,Humidity,HourlyPrecipIn,Conditions,Clouds,dailyrainin,SoftwareType,DateUTC
2013-08-16 00:01:00,55.6,50.5,29.89,SW,225,0.0,1.0,83,0.00,,,0.00,Weather View 32 v70,2013-08-16 08:01:00,
2013-08-16 00:06:00,55.6,50.5,29.89,South,180,0.0,1.0,83,0.00,,,0.00,Weather View 32 v70,2013-08-16 08:06:00,
2013-08-16 00:11:00,55.6,50.5,29.89,South,180,0.0,1.0,83,0.00,,,0.00,Weather View 32 v70,2013-08-16 08:11:00,
2013-08-16 00:16:00,55.4,50.3,29.89,South,180,0.0,0.0,83,0.00,,,0.00,Weather View 32 v70,2013-08-16 08:16:00,
2013-08-16 00:21:00,55.4,50.3,29.89,South,180,0.0,0.0,83,0.00,,,0.00,Weather View 32 v70,2013-08-16 08:21:00,
2013-08-16 00:26:00,55.2,50.1,29.89,WSW,248,0.0,0.0,83,0.00,,,0.00,Weather View 32 v70,2013-08-16 08:26:00,
2013-08-16 00:31:00,55.2,50.1,29.89,South,180,0.0,0.0,83,0.00,,,0.00,Weather View 32 v70,2013-08-16 08:31:00,
2013-08-16 00:36:00,55.2,50.1,29.89,South,180,0.0,0.0,83,0.00,,,0.00,Weather View 32 v70,2013-08-16 08:36:00,
2013-08-16 00:41:00,55.2,50.1,29.89,South,180,0.0,0.0,83,0.00,,,0.00,Weather View 32 v70,2013-08-16 08:41:00,
2013-08-16 00:46:00,55.0,50.3,29.88,South,180,0.0,0.0,84,0.00,,,0.00,Weather View 32 v70,2013-08-16 08:46:00,
2013-08-16 00:51:00,54.9,50.1,29.88,South,180,0.0,0.0,84,0.00,,,0.00,Weather View 32 v70,2013-08-16 08:51:00,
2013-08-16 00:56:00,54.9,50.1,29.88,South,180,0.0,0.0,84,0.00,,,0.00,Weather View 32 v70,2013-08-16 08:56:00,
2013-08-16 01:01:00,54.5,49.8,29.88,South,180,0.0,0.0,84,0.00,,,0.00,Weather View 32 v70,2013-08-16 09:01:00,
2013-08-16 01:06:00,54.5,50.1,29.88,WSW,248,0.0,0.0,85,0.00,,,0.00,Weather View 32 v70,2013-08-16 09:06:00,
2013-08-16 01:11:00,54.3,49.9,29.88,SW,225,0.0,0.0,85,0.00,,,0.00,Weather View 32 v70,2013-08-16 09:11:00,
2013-08-16 01:16:00,54.3,49.9,29.88,WNW,292,0.0,0.0,85,0.00,,,0.00,Weather View 32 v70,2013-08-16 09:16:00,
2013-08-16 01:21:00,54.3,49.6,29.88,WSW,248,0.0,0.0,84,0.00,,,0.00,Weather View 32 v70,2013-08-16 09:21:00,
2013-08-16 01:26:00,54.3,49.6,29.88,SW,225,0.0,0.0,84,0.00,,,0.00,Weather View 32 v70,2013-08-16 09:26:00,
2013-08-16 01:31:00,54.5,49.8,29.88,SW,225,0.0,0.0,84,0.00,,,0.00,Weather View 32 v70,2013-08-16 09:31:00,
2013-08-16 01:36:00,54.1,49.1,29.88,SW,225,0.0,0.0,83,0.00,,,0.00,Weather View 32 v70,2013-08-16 09:36:00,
2013-08-16 01:41:00,53.8,49.0,29.88,WSW,248,0.0,0.0,84,0.00,,,0.00,Weather View 32 v70,2013-08-16 09:41:00,
2013-08-16 01:46:00,53.6,48.9,29.88,SW,225,0.0,0.0,84,0.00,,,0.00,Weather View 32 v70,2013-08-16 09:46:00,
2013-08-16 01:51:00,53.1,48.7,29.88,South,180,0.0,0.0,85,0.00,,,0.00,Weather View 32 v70,2013-08-16 09:51:00,
2013-08-16 01:56:00,52.9,48.5,29.88,SSE,158,0.0,0.0,85,0.00,,,0.00,Weather View 32 v70,2013-08-16 09:56:00,
2013-08-16 02:01:00,52.3,48.3,29.88,South,180,0.0,0.0,86,0.00,,,0.00,Weather View 32 v70,2013-08-16 10:01:00,
2013-08-16 02:06:00,52.2,48.1,29.87,SW,225,0.0,0.0,86,0.00,,,0.00,Weather View 32 v70,2013-08-16 10:06:00,
2013-08-16 02:11:00,52.0,47.9,29.87,South,180,0.0,0.0,86,0.00,,,0.00,Weather View 32 v70,2013-08-16 10:11:00,
2013-08-16 02:16:00,51.8,48.0,29.87,SW,225,0.0,0.0,87,0.00,,,0.00,Weather View 32 v70,2013-08-16 10:16:00,
2013-08-16 02:21:00,51.4,47.7,29.87,SSE,158,0.0,0.0,87,0.00,,,0.00,Weather View 32 v70,2013-08-16 10:21:00,
2013-08-16 02:26:00,51.3,47.5,29.87,SW,225,0.0,0.0,87,0.00,,,0.00,Weather View 32 v70,2013-08-16 10:26:00,
2013-08-16 02:31:00,51.3,47.5,29.87,WSW,248,0.0,0.0,87,0.00,,,0.00,Weather View 32 v70,2013-08-16 10:31:00,
2013-08-16 02:36:00,50.9,47.2,29.87,WSW,248,0.0,0.0,87,0.00,,,0.00,Weather View 32 v70,2013-08-16 10:36:00,
2013-08-16 02:41:00,50.7,47.0,29.87,WSW,248,0.0,0.0,87,0.00,,,0.00,Weather View 32 v70,2013-08-16 10:41:00,
2013-08-16 02:46:00,50.9,47.2,29.86,WSW,248,0.0,0.0,87,0.00,,,0.00,Weather View 32 v70,2013-08-16 10:46:00,
2013-08-16 02:51:00,50.5,46.8,29.86,WSW,248,0.0,0.0,87,0.00,,,0.00,Weather View 32 v70,2013-08-16 10:51:00,
2013-08-16 02:56:00,50.2,46.5,29.86,WSW,248,0.0,0.0,87,0.00,,,0.00,Weather View 32 v70,2013-08-16 10:56:00,
2013-08-16 03:01:00,50.2,46.8,29.86,WSW,248,1.0,0.0,88,0.00,,,0.00,Weather View 32 v70,2013-08-16 11:01:00,
2013-08-16 03:06:00,50.0,46.6,29.86,WSW,248,1.0,1.0,88,0.00,,,0.00,Weather View 32 v70,2013-08-16 11:06:00,
2013-08-16 03:11:00,50.0,46.6,29.86,WSW,248,1.0,1.0,88,0.00,,,0.00,Weather View 32 v70,2013-08-16 11:11:00,
2013-08-16 03:16:00,49.8,46.4,29.86,WSW,248,0.0,1.0,88,0.00,,,0.00,Weather View 32 v70,2013-08-16 11:16:00,
2013-08-16 03:21:00,49.6,46.2,29.86,WSW,248,0.0,1.0,88,0.00,,,0.00,Weather View 32 v70,2013-08-16 11:21:00,
2013-08-16 03:26:00,49.5,46.0,29.85,WSW,248,0.0,1.0,88,0.00,,,0.00,Weather View 32 v70,2013-08-16 11:26:00,
2013-08-16 03:31:00,49.5,46.0,29.85,WSW,248,0.0,1.0,88,0.00,,,0.00,Weather View 32 v70,2013-08-16 11:31:00,
2013-08-16 03:36:00,49.1,45.7,29.85,WSW,248,0.0,1.0,88,0.00,,,0.00,Weather View 32 v70,2013-08-16 11:36:00,
2013-08-16 03:41:00,48.9,45.8,29.85,WSW,248,0.0,1.0,89,0.00,,,0.00,Weather View 32 v70,2013-08-16 11:41:00,
2013-08-16 03:46:00,48.9,45.8,29.85,WSW,248,0.0,1.0,89,0.00,,,0.00,Weather View 32 v70,2013-08-16 11:46:00,
2013-08-16 03:51:00,48.7,45.3,29.85,WSW,248,0.0,1.0,88,0.00,,,0.00,Weather View 32 v70,2013-08-16 11:51:00,
2013-08-16 03:56:00,48.7,45.3,29.85,WSW,248,0.0,1.0,88,0.00,,,0.00,Weather View 32 v70,2013-08-16 11:56:00,
2013-08-16 04:01:00,48.6,45.5,29.85,WSW,248,0.0,1.0,89,0.00,,,0.00,Weather View 32 v70,2013-08-16 12:01:00,
2013-08-16 04:06:00,48.7,45.6,29.84,WSW,248,0.0,1.0,89,0.00,,,0.00,Weather View 32 v70,2013-08-16 12:06:00,
2013-08-16 04:11:00,48.7,45.6,29.84,WSW,248,0.0,1.0,89,0.00,,,0.00,Weather View 32 v70,2013-08-16 12:11:00,
2013-08-16 04:16:00,48.4,45.3,29.84,WSW,248,0.0,0.0,89,0.00,,,0.00,Weather View 32 v70,2013-08-16 12:16:00,
2013-08-16 04:21:00,48.2,45.1,29.84,WSW,248,0.0,0.0,89,0.00,,,0.00,Weather View 32 v70,2013-08-16 12:21:00,
2013-08-16 04:26:00,48.4,45.3,29.84,WSW,248,0.0,0.0,89,0.00,,,0.00,Weather View 32 v70,2013-08-16 12:26:00,
2013-08-16 04:31:00,48.0,44.9,29.84,WSW,248,0.0,0.0,89,0.00,,,0.00,Weather View 32 v70,2013-08-16 12:31:00,
2013-08-16 04:36:00,48.0,44.9,29.84,WSW,248,0.0,0.0,89,0.00,,,0.00,Weather View 32 v70,2013-08-16 12:36:00,
2013-08-16 04:41:00,47.8,45.0,29.84,WSW,248,0.0,0.0,90,0.00,,,0.00,Weather View 32 v70,2013-08-16 12:41:00,
2013-08-16 04:46:00,47.8,45.0,29.83,WSW,248,0.0,0.0,90,0.00,,,0.00,Weather View 32 v70,2013-08-16 12:46:00,
2013-08-16 04:51:00,47.8,45.0,29.83,WSW,248,0.0,0.0,90,0.00,,,0.00,Weather View 32 v70,2013-08-16 12:51:00,
2013-08-16 04:56:00,47.8,45.0,29.83,WSW,248,0.0,0.0,90,0.00,,,0.00,Weather View 32 v70,2013-08-16 12:56:00,
2013-08-16 05:01:00,47.7,44.6,29.83,WSW,248,0.0,0.0,89,0.00,,,0.00,Weather View 32 v70,2013-08-16 13:01:00,
2013-08-16 05:06:00,47.7,44.6,29.83,WSW,248,0.0,0.0,89,0.00,,,0.00,Weather View 32 v70,2013-08-16 13:06:00,
2013-08-16 05:11:00,47.7,44.9,29.83,WSW,248,0.0,0.0,90,0.00,,,0.00,Weather View 32 v70,2013-08-16 13:11:00,
2013-08-16 05:16:00,47.7,44.6,29.83,WSW,248,0.0,0.0,89,0.00,,,0.00,Weather View 32 v70,2013-08-16 13:16:00,
2013-08-16 05:21:00,47.3,44.2,29.83,WSW,248,0.0,0.0,89,0.00,,,0.00,Weather View 32 v70,2013-08-16 13:21:00,
2013-08-16 05:26:00,47.3,44.2,29.83,WSW,248,0.0,0.0,89,0.00,,,0.00,Weather View 32 v70,2013-08-16 13:26:00,
2013-08-16 05:31:00,47.1,44.0,29.83,WSW,248,0.0,0.0,89,0.00,,,0.00,Weather View 32 v70,2013-08-16 13:31:00,
2013-08-16 05:36:00,47.1,44.0,29.83,WSW,248,0.0,0.0,89,0.00,,,0.00,Weather View 32 v70,2013-08-16 13:36:00,
2013-08-16 05:41:00,46.9,43.9,29.83,WSW,248,0.0,0.0,89,0.00,,,0.00,Weather View 32 v70,2013-08-16 13:41:00,
2013-08-16 05:46:00,46.9,43.9,29.83,WSW,248,0.0,0.0,89,0.00,,,0.00,Weather View 32 v70,2013-08-16 13:46:00,
2013-08-16 05:51:00,46.9,44.2,29.83,WSW,248,0.0,0.0,90,0.00,,,0.00,Weather View 32 v70,2013-08-16 13:51:00,
2013-08-16 05:56:00,46.9,44.2,29.83,WSW,248,0.0,0.0,90,0.00,,,0.00,Weather View 32 v70,2013-08-16 13:56:00,
2013-08-16 06:01:00,46.9,44.2,29.83,WSW,248,0.0,0.0,90,0.00,,,0.00,Weather View 32 v70,2013-08-16 14:01:00,
2013-08-16 06:06:00,46.9,44.2,29.82,WSW,248,0.0,0.0,90,0.00,,,0.00,Weather View 32 v70,2013-08-16 14:06:00,
2013-08-16 06:11:00,46.9,44.2,29.82,WSW,248,0.0,0.0,90,0.00,,,0.00,Weather View 32 v70,2013-08-16 14:11:00,
2013-08-16 06:16:00,46.9,44.2,29.82,WSW,248,0.0,0.0,90,0.00,,,0.00,Weather View 32 v70,2013-08-16 14:16:00,
2013-08-16 06:21:00,47.1,44.3,29.82,WSW,248,0.0,0.0,90,0.00,,,0.00,Weather View 32 v70,2013-08-16 14:21:00,
2013-08-16 06:26:00,46.9,44.2,29.84,WSW,248,0.0,0.0,90,0.00,,,0.00,Weather View 32 v70,2013-08-16 14:26:00,
2013-08-16 06:31:00,47.1,44.3,29.84,WSW,248,0.0,0.0,90,0.00,,,0.00,Weather View 32 v70,2013-08-16 14:31:00,
2013-08-16 06:36:00,47.3,44.5,29.84,WSW,248,0.0,0.0,90,0.00,,,0.00,Weather View 32 v70,2013-08-16 14:36:00,
2013-08-16 06:41:00,47.5,44.7,29.84,WSW,248,0.0,0.0,90,0.00,,,0.00,Weather View 32 v70,2013-08-16 14:41:00,
2013-08-16 06:46:00,47.5,44.7,29.83,SE,135,0.0,0.0,90,0.00,,,0.00,Weather View 32 v70,2013-08-16 14:46:00,
2013-08-16 06:51:00,47.7,44.6,29.83,East,90,0.0,0.0,89,0.00,,,0.00,Weather View 32 v70,2013-08-16 14:51:00,
2013-08-16 06:56:00,47.7,44.6,29.83,East,90,0.0,0.0,89,0.00,,,0.00,Weather View 32 v70,2013-08-16 14:56:00,
2013-08-16 07:01:00,47.5,44.4,29.83,NNW,338,0.0,0.0,89,0.00,,,0.00,Weather View 32 v70,2013-08-16 15:01:00,
2013-08-16 07:06:00,47.7,44.9,29.87,WNW,292,0.0,0.0,90,0.00,,,0.00,Weather View 32 v70,2013-08-16 15:06:00,
2013-08-16 07:11:00,47.7,44.9,29.87,South,180,0.0,0.0,90,0.00,,,0.00,Weather View 32 v70,2013-08-16 15:11:00,
2013-08-16 07:16:00,47.8,45.0,29.87,SE,135,0.0,0.0,90,0.00,,,0.00,Weather View 32 v70,2013-08-16 15:16:00,
2013-08-16 07:21:00,47.8,45.0,29.87,SSE,158,0.0,0.0,90,0.00,,,0.00,Weather View 32 v70,2013-08-16 15:21:00,
2013-08-16 07:26:00,48.0,45.2,29.86,SSE,158,0.0,0.0,90,0.00,,,0.00,Weather View 32 v70,2013-08-16 15:26:00,
2013-08-16 07:31:00,48.0,45.2,29.86,SSE,158,0.0,0.0,90,0.00,,,0.00,Weather View 32 v70,2013-08-16 15:31:00,
2013-08-16 07:36:00,48.2,45.4,29.86,SSE,158,0.0,0.0,90,0.00,,,0.00,Weather View 32 v70,2013-08-16 15:36:00,
2013-08-16 07:41:00,48.4,45.6,29.86,ESE,112,0.0,0.0,90,0.00,,,0.00,Weather View 32 v70,2013-08-16 15:41:00,
2013-08-16 07:46:00,48.4,45.6,29.86,SE,135,0.0,0.0,90,0.00,,,0.00,Weather View 32 v70,2013-08-16 15:46:00,
2013-08-16 07:51:00,48.4,45.6,29.86,SSE,158,0.0,0.0,90,0.00,,,0.00,Weather View 32 v70,2013-08-16 15:51:00,
2013-08-16 07:56:00,48.4,45.6,29.86,South,180,0.0,0.0,90,0.00,,,0.00,Weather View 32 v70,2013-08-16 15:56:00,
2013-08-16 08:01:00,48.4,45.6,29.86,NW,315,0.0,0.0,90,0.00,,,0.00,Weather View 32 v70,2013-08-16 16:01:00,
2013-08-16 08:06:00,48.2,45.4,29.86,NW,315,0.0,0.0,90,0.00,,,0.00,Weather View 32 v70,2013-08-16 16:06:00,
2013-08-16 08:11:00,48.4,45.6,29.86,NW,315,0.0,0.0,90,0.00,,,0.00,Weather View 32 v70,2013-08-16 16:11:00,
2013-08-16 08:16:00,48.4,45.6,29.86,ESE,112,0.0,0.0,90,0.00,,,0.00,Weather View 32 v70,2013-08-16 16:16:00,
2013-08-16 08:21:00,48.6,45.8,29.86,NNW,338,0.0,0.0,90,0.00,,,0.00,Weather View 32 v70,2013-08-16 16:21:00,
2013-08-16 08:30:00,48.7,45.9,29.87,SSE,158,0.0,0.0,90,0.00,,,0.00,Weather View 32 v70,2013-08-16 16:30:00,
2013-08-16 08:40:00,48.7,45.9,29.87,SSE,158,0.0,0.0,90,0.00,,,0.00,Weather View 32 v70,2013-08-16 16:40:00,
2013-08-16 08:45:00,49.1,46.3,29.87,SE,135,0.0,0.0,90,0.00,,,0.00,Weather View 32 v70,2013-08-16 16:45:00,
2013-08-16 08:50:00,49.1,46.3,29.87,SSW,202,0.0,0.0,90,0.00,,,0.00,Weather View 32 v70,2013-08-16 16:50:00,
2013-08-16 08:55:00,49.5,46.6,29.87,SSW,202,0.0,0.0,90,0.00,,,0.00,Weather View 32 v70,2013-08-16 16:55:00,
2013-08-16 09:00:00,49.3,46.2,29.87,NW,315,0.0,0.0,89,0.00,,,0.00,Weather View 32 v70,2013-08-16 17:00:00,
2013-08-16 09:05:00,49.5,46.3,29.88,WSW,248,0.0,0.0,89,0.00,,,0.00,Weather View 32 v70,2013-08-16 17:05:00,
2013-08-16 09:10:00,49.5,46.3,29.88,WSW,248,0.0,0.0,89,0.00,,,0.00,Weather View 32 v70,2013-08-16 17:10:00,
2013-08-16 09:15:00,49.8,46.7,29.88,WSW,248,0.0,0.0,89,0.00,,,0.00,Weather View 32 v70,2013-08-16 17:15:00,
2013-08-16 09:20:00,49.8,46.7,29.88,WSW,248,0.0,0.0,89,0.00,,,0.00,Weather View 32 v70,2013-08-16 17:20:00,
2013-08-16 09:25:00,49.8,46.7,29.88,West,270,0.0,0.0,89,0.00,,,0.00,Weather View 32 v70,2013-08-16 17:25:00,
2013-08-16 09:30:00,50.0,46.9,29.89,NNE,22,0.0,0.0,89,0.00,,,0.00,Weather View 32 v70,2013-08-16 17:30:00,
2013-08-16 09:35:00,50.5,47.1,29.89,WSW,248,0.0,0.0,88,0.00,,,0.00,Weather View 32 v70,2013-08-16 17:35:00,
2013-08-16 09:40:00,50.7,47.3,29.89,NW,315,0.0,0.0,88,0.00,,,0.00,Weather View 32 v70,2013-08-16 17:40:00,
2013-08-16 09:45:00,51.3,48.1,29.89,NNE,22,0.0,0.0,89,0.00,,,0.00,Weather View 32 v70,2013-08-16 17:45:00,
2013-08-16 09:50:00,52.0,48.5,29.89,ESE,112,0.0,0.0,88,0.00,,,0.00,Weather View 32 v70,2013-08-16 17:50:00,
2013-08-16 09:55:00,52.5,48.8,29.89,NNE,22,0.0,0.0,87,0.00,,,0.00,Weather View 32 v70,2013-08-16 17:55:00,
2013-08-16 10:00:00,52.9,49.1,29.89,NW,315,0.0,0.0,87,0.00,,,0.00,Weather View 32 v70,2013-08-16 18:00:00,
2013-08-16 10:05:00,53.1,49.0,29.89,NNE,22,0.0,0.0,86,0.00,,,0.00,Weather View 32 v70,2013-08-16 18:05:00,
2013-08-16 10:10:00,53.2,49.2,29.91,ENE,68,0.0,0.0,86,0.00,,,0.00,Weather View 32 v70,2013-08-16 18:10:00,
2013-08-16 10:15:00,53.8,49.7,29.91,ENE,68,0.0,0.0,86,0.00,,,0.00,Weather View 32 v70,2013-08-16 18:15:00,
2013-08-16 10:20:00,54.3,50.2,29.91,NNE,22,0.0,0.0,86,0.00,,,0.00,Weather View 32 v70,2013-08-16 18:20:00,
2013-08-16 10:25:00,54.7,50.2,29.91,NW,315,0.0,0.0,85,0.00,,,0.00,Weather View 32 v70,2013-08-16 18:25:00,
2013-08-16 10:30:00,55.2,50.5,29.91,NNW,338,0.0,0.0,84,0.00,,,0.00,Weather View 32 v70,2013-08-16 18:30:00,
2013-08-16 10:35:00,55.8,51.0,29.91,NNW,338,0.0,0.0,84,0.00,,,0.00,Weather View 32 v70,2013-08-16 18:35:00,
2013-08-16 10:40:00,56.1,51.0,29.91,WNW,292,0.0,0.0,83,0.00,,,0.00,Weather View 32 v70,2013-08-16 18:40:00,
2013-08-16 10:45:00,57.0,51.9,29.89,West,270,0.0,0.0,83,0.00,,,0.00,Weather View 32 v70,2013-08-16 18:45:00,
2013-08-16 10:50:00,57.2,51.4,29.89,NE,45,0.0,0.0,81,0.00,,,0.00,Weather View 32 v70,2013-08-16 18:50:00,
2013-08-16 10:55:00,57.2,51.1,29.89,NNE,22,0.0,0.0,80,0.00,,,0.00,Weather View 32 v70,2013-08-16 18:55:00,
2013-08-16 11:00:00,57.4,51.2,29.89,ENE,68,0.0,0.0,80,0.00,,,0.00,Weather View 32 v70,2013-08-16 19:00:00,
2013-08-16 11:05:00,57.4,51.2,29.86,NNE,22,0.0,0.0,80,0.00,,,0.00,Weather View 32 v70,2013-08-16 19:05:00,
2013-08-16 11:10:00,57.6,51.4,29.86,NNE,22,0.0,0.0,80,0.00,,,0.00,Weather View 32 v70,2013-08-16 19:10:00,
2013-08-16 11:15:00,57.7,51.6,29.86,ENE,68,1.0,1.0,80,0.00,,,0.00,Weather View 32 v70,2013-08-16 19:15:00,
2013-08-16 11:20:00,57.7,51.3,29.86,NE,45,1.0,1.0,79,0.00,,,0.00,Weather View 32 v70,2013-08-16 19:20:00,
2013-08-16 11:25:00,58.1,51.6,29.86,ENE,68,2.0,2.0,79,0.00,,,0.00,Weather View 32 v70,2013-08-16 19:25:00,
2013-08-16 11:30:00,57.9,51.1,29.86,East,90,2.0,2.0,78,0.00,,,0.00,Weather View 32 v70,2013-08-16 19:30:00,
2013-08-16 11:35:00,58.1,51.3,29.86,North,0,2.0,2.0,78,0.00,,,0.00,Weather View 32 v70,2013-08-16 19:35:00,
2013-08-16 11:40:00,57.9,50.7,29.86,NNE,22,2.0,2.0,77,0.00,,,0.00,Weather View 32 v70,2013-08-16 19:40:00,
2013-08-16 11:45:00,57.9,51.1,29.86,ENE,68,2.0,2.0,78,0.00,,,0.00,Weather View 32 v70,2013-08-16 19:45:00,
2013-08-16 11:50:00,57.7,50.9,29.85,NNW,338,2.0,2.0,78,0.00,,,0.00,Weather View 32 v70,2013-08-16 19:50:00,
2013-08-16 11:55:00,57.7,50.9,29.85,NNW,338,2.0,2.0,78,0.00,,,0.00,Weather View 32 v70,2013-08-16 19:55:00,
2013-08-16 12:00:00,57.4,50.9,29.85,East,90,2.0,2.0,79,0.00,,,0.00,Weather View 32 v70,2013-08-16 20:00:00,
2013-08-16 12:05:00,57.4,50.9,29.85,NE,45,1.0,2.0,79,0.00,,,0.00,Weather View 32 v70,2013-08-16 20:05:00,
2013-08-16 12:10:00,57.4,50.9,29.85,NNE,22,1.0,2.0,79,0.00,,,0.00,Weather View 32 v70,2013-08-16 20:10:00,
2013-08-16 12:15:00,57.4,50.9,29.85,ENE,68,1.0,2.0,79,0.00,,,0.00,Weather View 32 v70,2013-08-16 20:15:00,
2013-08-16 12:20:00,57.6,51.1,29.85,NE,45,1.0,2.0,79,0.00,,,0.00,Weather View 32 v70,2013-08-16 20:20:00,
2013-08-16 12:25:00,57.6,51.4,29.87,SE,135,1.0,2.0,80,0.00,,,0.00,Weather View 32 v70,2013-08-16 20:25:00,
2013-08-16 12:30:00,57.6,51.4,29.87,NNW,338,1.0,2.0,80,0.00,,,0.00,Weather View 32 v70,2013-08-16 20:30:00,
2013-08-16 12:35:00,57.6,51.8,29.87,ENE,68,1.0,2.0,81,0.00,,,0.00,Weather View 32 v70,2013-08-16 20:35:00,
2013-08-16 12:40:00,58.1,52.3,29.87,North,0,1.0,2.0,81,0.00,,,0.00,Weather View 32 v70,2013-08-16 20:40:00,
2013-08-16 12:45:00,57.9,52.1,29.86,North,0,2.0,2.0,81,0.00,,,0.00,Weather View 32 v70,2013-08-16 20:45:00,
2013-08-16 12:50:00,58.1,52.3,29.86,NE,45,1.0,2.0,81,0.00,,,0.00,Weather View 32 v70,2013-08-16 20:50:00,
2013-08-16 12:55:00,58.3,52.8,29.86,NNE,22,1.0,2.0,82,0.00,,,0.00,Weather View 32 v70,2013-08-16 20:55:00,
2013-08-16 13:00:00,58.1,52.3,29.86,NNE,22,1.0,2.0,81,0.00,,,0.00,Weather View 32 v70,2013-08-16 21:00:00,
2013-08-16 13:05:00,57.9,52.1,29.85,NNW,338,1.0,2.0,81,0.00,,,0.00,Weather View 32 v70,2013-08-16 21:05:00,
2013-08-16 13:10:00,57.9,52.4,29.85,North,0,1.0,2.0,82,0.00,,,0.00,Weather View 32 v70,2013-08-16 21:10:00,
2013-08-16 13:15:00,58.1,53.0,29.85,NNE,22,2.0,2.0,83,0.00,,,0.00,Weather View 32 v70,2013-08-16 21:15:00,
2013-08-16 13:20:00,57.9,52.8,29.85,NE,45,2.0,2.0,83,0.00,,,0.00,Weather View 32 v70,2013-08-16 21:20:00,
2013-08-16 13:25:00,57.6,52.4,29.84,NNE,22,2.0,2.0,83,0.00,,,0.00,Weather View 32 v70,2013-08-16 21:25:00,
2013-08-16 13:30:00,57.7,52.9,29.84,NE,45,2.0,2.0,84,0.03,,,0.03,Weather View 32 v70,2013-08-16 21:30:00,
2013-08-16 13:35:00,57.4,52.6,29.84,NE,45,2.0,2.0,84,0.03,,,0.03,Weather View 32 v70,2013-08-16 21:35:00,
2013-08-16 13:40:00,57.0,52.5,29.84,North,0,1.0,2.0,85,0.03,,,0.03,Weather View 32 v70,2013-08-16 21:40:00,
2013-08-16 13:45:00,57.0,52.5,29.84,North,0,1.0,2.0,85,0.03,,,0.03,Weather View 32 v70,2013-08-16 21:45:00,
2013-08-16 13:50:00,57.0,52.9,29.84,North,0,1.0,2.0,86,0.03,,,0.03,Weather View 32 v70,2013-08-16 21:50:00,
2013-08-16 13:55:00,56.8,52.7,29.84,North,0,1.0,2.0,86,0.03,,,0.03,Weather View 32 v70,2013-08-16 21:55:00,
2013-08-16 14:00:00,57.0,52.9,29.84,NNE,22,2.0,2.0,86,0.03,,,0.03,Weather View 32 v70,2013-08-16 22:00:00,
2013-08-16 14:05:00,57.0,52.9,29.84,NNE,22,1.0,2.0,86,0.06,,,0.06,Weather View 32 v70,2013-08-16 22:05:00,
2013-08-16 14:10:00,57.0,53.2,29.83,North,0,1.0,2.0,87,0.06,,,0.06,Weather View 32 v70,2013-08-16 22:10:00,
2013-08-16 14:15:00,57.0,53.2,29.83,NNE,22,2.0,2.0,87,0.06,,,0.06,Weather View 32 v70,2013-08-16 22:15:00,
2013-08-16 14:20:00,57.2,53.4,29.83,NNW,338,2.0,2.0,87,0.06,,,0.06,Weather View 32 v70,2013-08-16 22:20:00,
2013-08-16 14:25:00,57.0,53.2,29.83,ENE,68,2.0,2.0,87,0.06,,,0.06,Weather View 32 v70,2013-08-16 22:25:00,
2013-08-16 14:30:00,57.0,53.2,29.83,NE,45,2.0,2.0,87,0.03,,,0.06,Weather View 32 v70,2013-08-16 22:30:00,
2013-08-16 14:35:00,57.0,53.5,29.83,NNE,22,1.0,2.0,88,0.03,,,0.06,Weather View 32 v70,2013-08-16 22:35:00,
2013-08-16 14:40:00,57.4,53.8,29.83,NNE,22,1.0,2.0,88,0.03,,,0.06,Weather View 32 v70,2013-08-16 22:40:00,
2013-08-16 14:45:00,57.4,53.8,29.82,NNE,22,2.0,2.0,88,0.03,,,0.09,Weather View 32 v70,2013-08-16 22:45:00,
2013-08-16 14:50:00,57.6,54.0,29.82,West,270,2.0,2.0,88,0.06,,,0.09,Weather View 32 v70,2013-08-16 22:50:00,
2013-08-16 14:55:00,57.4,53.8,29.82,North,0,1.0,2.0,88,0.06,,,0.09,Weather View 32 v70,2013-08-16 22:55:00,
2013-08-16 15:00:00,57.4,53.8,29.82,North,0,2.0,2.0,88,0.06,,,0.09,Weather View 32 v70,2013-08-16 23:00:00,
2013-08-16 15:05:00,57.4,53.8,29.81,NNE,22,2.0,2.0,88,0.03,,,0.09,Weather View 32 v70,2013-08-16 23:05:00,
2013-08-16 15:10:00,57.4,53.8,29.81,NNE,22,2.0,2.0,88,0.03,,,0.09,Weather View 32 v70,2013-08-16 23:10:00,
2013-08-16 15:15:00,57.2,53.7,29.81,NNE,22,2.0,2.0,88,0.03,,,0.09,Weather View 32 v70,2013-08-16 23:15:00,
2013-08-16 15:20:00,57.2,53.7,29.81,NNE,22,2.0,2.0,88,0.03,,,0.09,Weather View 32 v70,2013-08-16 23:20:00,
2013-08-16 15:25:00,57.2,53.7,29.82,NNW,338,2.0,2.0,88,0.03,,,0.09,Weather View 32 v70,2013-08-16 23:25:00,
2013-08-16 15:30:00,57.2,54.0,29.82,North,0,2.0,2.0,89,0.03,,,0.09,Weather View 32 v70,2013-08-16 23:30:00,
2013-08-16 15:35:00,57.6,54.3,29.82,NNE,22,2.0,2.0,89,0.03,,,0.09,Weather View 32 v70,2013-08-16 23:35:00,
2013-08-16 15:40:00,57.6,54.3,29.82,NNW,338,2.0,2.0,89,0.03,,,0.09,Weather View 32 v70,2013-08-16 23:40:00,
2013-08-16 15:45:00,57.7,54.5,29.81,NE,45,2.0,2.0,89,0.00,,,0.09,Weather View 32 v70,2013-08-16 23:45:00,
2013-08-16 15:50:00,57.6,54.3,29.81,NNW,338,2.0,2.0,89,0.00,,,0.09,Weather View 32 v70,2013-08-16 23:50:00,
2013-08-16 15:55:00,57.4,54.2,29.81,NNW,338,2.0,2.0,89,0.00,,,0.09,Weather View 32 v70,2013-08-16 23:55:00,
2013-08-16 16:00:00,57.4,54.2,29.81,North,0,2.0,2.0,89,0.00,,,0.09,Weather View 32 v70,2013-08-17 00:00:00,
2013-08-16 16:05:00,57.2,54.0,29.81,NNE,22,3.0,3.0,89,0.00,,,0.09,Weather View 32 v70,2013-08-17 00:05:00,
2013-08-16 16:10:00,57.2,54.0,29.81,NNE,22,3.0,3.0,89,0.00,,,0.09,Weather View 32 v70,2013-08-17 00:10:00,
2013-08-16 16:15:00,57.4,54.5,29.81,SSW,202,2.0,3.0,90,0.00,,,0.12,Weather View 32 v70,2013-08-17 00:15:00,
2013-08-16 16:20:00,57.4,54.5,29.81,NNE,22,2.0,3.0,90,0.03,,,0.12,Weather View 32 v70,2013-08-17 00:20:00,
2013-08-16 16:25:00,57.4,54.2,29.80,NNE,22,3.0,3.0,89,0.03,,,0.12,Weather View 32 v70,2013-08-17 00:25:00,
2013-08-16 16:30:00,57.4,54.5,29.80,North,0,3.0,3.0,90,0.03,,,0.12,Weather View 32 v70,2013-08-17 00:30:00,
2013-08-16 16:35:00,57.6,54.6,29.80,NE,45,2.0,3.0,90,0.03,,,0.12,Weather View 32 v70,2013-08-17 00:35:00,
2013-08-16 16:40:00,57.6,54.6,29.80,North,0,2.0,3.0,90,0.03,,,0.12,Weather View 32 v70,2013-08-17 00:40:00,
2013-08-16 16:45:00,57.7,54.8,29.80,NNE,22,2.0,3.0,90,0.03,,,0.12,Weather View 32 v70,2013-08-17 00:45:00,
2013-08-16 16:50:00,57.6,54.6,29.80,North,0,2.0,3.0,90,0.03,,,0.12,Weather View 32 v70,2013-08-17 00:50:00,
2013-08-16 16:55:00,57.7,55.1,29.80,NNE,22,2.0,3.0,91,0.03,,,0.12,Weather View 32 v70,2013-08-17 00:55:00,
2013-08-16 17:00:00,57.7,54.8,29.80,NNW,338,2.0,3.0,90,0.03,,,0.12,Weather View 32 v70,2013-08-17 01:00:00,
2013-08-16 17:05:00,57.7,54.8,29.80,NNW,338,3.0,3.0,90,0.03,,,0.12,Weather View 32 v70,2013-08-17 01:05:00,
2013-08-16 17:10:00,57.7,54.8,29.80,SE,135,3.0,3.0,90,0.03,,,0.12,Weather View 32 v70,2013-08-17 01:10:00,
2013-08-16 17:15:00,57.7,54.8,29.80,North,0,2.0,3.0,90,0.03,,,0.12,Weather View 32 v70,2013-08-17 01:15:00,
2013-08-16 17:20:00,57.7,54.8,29.80,NNE,22,2.0,3.0,90,0.00,,,0.12,Weather View 32 v70,2013-08-17 01:20:00,
2013-08-16 17:25:00,57.7,54.8,29.80,NNE,22,3.0,3.0,90,0.00,,,0.12,Weather View 32 v70,2013-08-17 01:25:00,
2013-08-16 17:30:00,57.9,55.3,29.80,NW,315,2.0,3.0,91,0.00,,,0.12,Weather View 32 v70,2013-08-17 01:30:00,
2013-08-16 17:35:00,57.9,55.3,29.80,NNW,338,2.0,3.0,91,0.00,,,0.12,Weather View 32 v70,2013-08-17 01:35:00,
2013-08-16 17:40:00,57.7,55.1,29.80,NW,315,3.0,3.0,91,0.00,,,0.12,Weather View 32 v70,2013-08-17 01:40:00,
2013-08-16 17:45:00,58.1,55.2,29.80,North,0,2.0,3.0,90,0.00,,,0.12,Weather View 32 v70,2013-08-17 01:45:00,
2013-08-16 17:50:00,57.7,55.1,29.80,NNE,22,2.0,3.0,91,0.00,,,0.12,Weather View 32 v70,2013-08-17 01:50:00,
2013-08-16 17:55:00,57.7,55.1,29.80,North,0,2.0,3.0,91,0.00,,,0.12,Weather View 32 v70,2013-08-17 01:55:00,
2013-08-16 18:00:00,57.7,55.1,29.80,North,0,3.0,3.0,91,0.00,,,0.12,Weather View 32 v70,2013-08-17 02:00:00,
2013-08-16 18:05:00,57.6,54.9,29.81,NNE,22,3.0,3.0,91,0.00,,,0.12,Weather View 32 v70,2013-08-17 02:05:00,
2013-08-16 18:10:00,57.6,54.9,29.81,NNE,22,3.0,3.0,91,0.00,,,0.12,Weather View 32 v70,2013-08-17 02:10:00,
2013-08-16 18:15:00,57.6,54.9,29.81,NW,315,3.0,3.0,91,0.00,,,0.12,Weather View 32 v70,2013-08-17 02:15:00,
2013-08-16 18:20:00,57.6,54.9,29.81,NNE,22,3.0,3.0,91,0.00,,,0.12,Weather View 32 v70,2013-08-17 02:20:00,
2013-08-16 18:25:00,57.4,54.8,29.82,North,0,3.0,3.0,91,0.00,,,0.12,Weather View 32 v70,2013-08-17 02:25:00,
2013-08-16 18:30:00,57.6,54.9,29.82,NNE,22,3.0,3.0,91,0.00,,,0.12,Weather View 32 v70,2013-08-17 02:30:00,
2013-08-16 18:35:00,57.2,54.6,29.82,NNW,338,3.0,3.0,91,0.00,,,0.12,Weather View 32 v70,2013-08-17 02:35:00,
2013-08-16 18:40:00,57.2,54.6,29.82,NNW,338,3.0,3.0,91,0.00,,,0.12,Weather View 32 v70,2013-08-17 02:40:00,
2013-08-16 18:45:00,57.2,54.6,29.83,NNW,338,3.0,3.0,91,0.00,,,0.12,Weather View 32 v70,2013-08-17 02:45:00,
2013-08-16 18:50:00,57.2,54.9,29.83,North,0,3.0,3.0,92,0.00,,,0.12,Weather View 32 v70,2013-08-17 02:50:00,
2013-08-16 18:55:00,57.2,54.9,29.83,NNW,338,3.0,3.0,92,0.00,,,0.12,Weather View 32 v70,2013-08-17 02:55:00,
2013-08-16 19:00:00,57.0,54.7,29.83,North,0,4.0,4.0,92,0.00,,,0.12,Weather View 32 v70,2013-08-17 03:00:00,
2013-08-16 19:05:00,57.0,54.7,29.84,ENE,68,3.0,4.0,92,0.00,,,0.12,Weather View 32 v70,2013-08-17 03:05:00,
2013-08-16 19:10:00,57.0,54.7,29.84,NNE,22,2.0,4.0,92,0.00,,,0.12,Weather View 32 v70,2013-08-17 03:10:00,
2013-08-16 19:15:00,57.0,54.7,29.84,North,0,2.0,4.0,92,0.00,,,0.12,Weather View 32 v70,2013-08-17 03:15:00,
2013-08-16 19:20:00,57.0,54.7,29.84,NNE,22,2.0,4.0,92,0.00,,,0.12,Weather View 32 v70,2013-08-17 03:20:00,
2013-08-16 19:25:00,57.0,54.7,29.84,NNW,338,3.0,4.0,92,0.00,,,0.12,Weather View 32 v70,2013-08-17 03:25:00,
2013-08-16 19:30:00,57.0,54.7,29.84,North,0,3.0,4.0,92,0.00,,,0.12,Weather View 32 v70,2013-08-17 03:30:00,
2013-08-16 19:35:00,57.0,54.7,29.84,North,0,3.0,4.0,92,0.00,,,0.12,Weather View 32 v70,2013-08-17 03:35:00,
2013-08-16 19:40:00,57.0,54.7,29.84,NNW,338,3.0,4.0,92,0.00,,,0.12,Weather View 32 v70,2013-08-17 03:40:00,
2013-08-16 19:45:00,57.0,54.7,29.85,NNE,22,3.0,4.0,92,0.00,,,0.12,Weather View 32 v70,2013-08-17 03:45:00,
2013-08-16 19:50:00,57.0,54.7,29.85,WNW,292,2.0,4.0,92,0.00,,,0.12,Weather View 32 v70,2013-08-17 03:50:00,
2013-08-16 19:55:00,56.8,54.5,29.85,NNE,22,2.0,4.0,92,0.00,,,0.12,Weather View 32 v70,2013-08-17 03:55:00,
2013-08-16 20:00:00,57.0,54.7,29.85,North,0,2.0,4.0,92,0.00,,,0.12,Weather View 32 v70,2013-08-17 04:00:00,
2013-08-16 20:01:00,57.0,54.7,29.85,North,0,2.0,4.0,92,0.00,,,0.12,Weather View 32 v70,2013-08-17 04:01:00,
2013-08-16 20:06:00,57.0,54.7,29.85,NNE,22,2.0,3.0,92,0.00,,,0.12,Weather View 32 v70,2013-08-17 04:06:00,
2013-08-16 20:11:00,57.0,54.7,29.85,NNW,338,3.0,3.0,92,0.00,,,0.12,Weather View 32 v70,2013-08-17 04:11:00,
2013-08-16 20:16:00,57.0,54.7,29.85,NNE,22,3.0,3.0,92,0.00,,,0.12,Weather View 32 v70,2013-08-17 04:16:00,
2013-08-16 20:21:00,56.7,54.1,29.85,NNW,338,3.0,3.0,91,0.00,,,0.12,Weather View 32 v70,2013-08-17 04:21:00,
2013-08-16 20:26:00,56.7,54.1,29.85,North,0,3.0,3.0,91,0.00,,,0.12,Weather View 32 v70,2013-08-17 04:26:00,
2013-08-16 20:31:00,56.5,53.9,29.85,North,0,3.0,3.0,91,0.00,,,0.12,Weather View 32 v70,2013-08-17 04:31:00,
2013-08-16 20:36:00,56.3,53.7,29.85,NNE,22,2.0,3.0,91,0.00,,,0.12,Weather View 32 v70,2013-08-17 04:36:00,
2013-08-16 20:41:00,56.3,53.7,29.85,North,0,2.0,3.0,91,0.00,,,0.12,Weather View 32 v70,2013-08-17 04:41:00,
2013-08-16 20:46:00,56.3,54.0,29.85,NNE,22,3.0,3.0,92,0.00,,,0.12,Weather View 32 v70,2013-08-17 04:46:00,
2013-08-16 20:51:00,56.3,54.0,29.85,NNE,22,2.0,3.0,92,0.00,,,0.12,Weather View 32 v70,2013-08-17 04:51:00,
2013-08-16 20:56:00,56.3,54.0,29.85,SW,225,2.0,3.0,92,0.00,,,0.12,Weather View 32 v70,2013-08-17 04:56:00,
2013-08-16 21:01:00,55.9,53.6,29.85,NNW,338,2.0,3.0,92,0.00,,,0.12,Weather View 32 v70,2013-08-17 05:01:00,
2013-08-16 21:06:00,55.9,53.6,29.85,NNE,22,2.0,3.0,92,0.00,,,0.12,Weather View 32 v70,2013-08-17 05:06:00,
2013-08-16 21:11:00,55.9,53.6,29.85,NW,315,2.0,3.0,92,0.00,,,0.12,Weather View 32 v70,2013-08-17 05:11:00,
2013-08-16 21:16:00,55.8,53.5,29.85,North,0,2.0,3.0,92,0.00,,,0.12,Weather View 32 v70,2013-08-17 05:16:00,
2013-08-16 21:21:00,55.6,53.3,29.85,NNE,22,2.0,3.0,92,0.00,,,0.12,Weather View 32 v70,2013-08-17 05:21:00,
2013-08-16 21:26:00,55.6,53.3,29.85,NNW,338,2.0,3.0,92,0.00,,,0.12,Weather View 32 v70,2013-08-17 05:26:00,
2013-08-16 21:31:00,55.6,53.3,29.85,NNW,338,2.0,3.0,92,0.00,,,0.12,Weather View 32 v70,2013-08-17 05:31:00,
2013-08-16 21:36:00,55.6,53.3,29.85,NNW,338,2.0,3.0,92,0.00,,,0.12,Weather View 32 v70,2013-08-17 05:36:00,
2013-08-16 21:41:00,55.6,53.3,29.85,NNE,22,1.0,3.0,92,0.00,,,0.12,Weather View 32 v70,2013-08-17 05:41:00,
2013-08-16 21:46:00,55.2,52.9,29.84,North,0,1.0,3.0,92,0.00,,,0.12,Weather View 32 v70,2013-08-17 05:46:00,
2013-08-16 21:51:00,55.2,52.9,29.84,North,0,1.0,2.0,92,0.00,,,0.12,Weather View 32 v70,2013-08-17 05:51:00,
2013-08-16 21:56:00,55.2,53.2,29.84,NNE,22,1.0,2.0,93,0.00,,,0.12,Weather View 32 v70,2013-08-17 05:56:00,
2013-08-16 22:01:00,55.0,53.0,29.84,NNE,22,2.0,2.0,93,0.00,,,0.12,Weather View 32 v70,2013-08-17 06:01:00,
2013-08-16 22:06:00,55.0,53.0,29.80,NE,45,2.0,2.0,93,0.00,,,0.12,Weather View 32 v70,2013-08-17 06:06:00,
2013-08-16 22:11:00,55.2,53.2,29.80,NNE,22,1.0,2.0,93,0.00,,,0.12,Weather View 32 v70,2013-08-17 06:11:00,
2013-08-16 22:16:00,54.9,52.9,29.80,NNW,338,1.0,2.0,93,0.00,,,0.12,Weather View 32 v70,2013-08-17 06:16:00,
2013-08-16 22:21:00,54.9,52.9,29.80,NNE,22,2.0,2.0,93,0.00,,,0.12,Weather View 32 v70,2013-08-17 06:21:00,
2013-08-16 22:26:00,54.9,52.9,29.77,North,0,2.0,2.0,93,0.00,,,0.12,Weather View 32 v70,2013-08-17 06:26:00,
2013-08-16 22:31:00,54.7,52.7,29.77,NNW,338,3.0,3.0,93,-0.12,,,0.12,Weather View 32 v70,2013-08-17 06:31:00,
2013-08-16 22:36:00,54.9,52.9,29.77,NNE,22,3.0,3.0,93,0.00,,,0.12,Weather View 32 v70,2013-08-17 06:36:00,
2013-08-16 22:41:00,54.9,52.9,29.77,NNW,338,3.0,3.0,93,0.00,,,0.12,Weather View 32 v70,2013-08-17 06:41:00,
2013-08-16 22:46:00,54.9,52.9,29.75,North,0,3.0,3.0,93,0.00,,,0.12,Weather View 32 v70,2013-08-17 06:46:00,
2013-08-16 22:51:00,54.9,52.9,29.75,NW,315,2.0,3.0,93,0.00,,,0.12,Weather View 32 v70,2013-08-17 06:51:00,
2013-08-16 22:56:00,54.9,52.9,29.75,North,0,2.0,3.0,93,0.00,,,0.12,Weather View 32 v70,2013-08-17 06:56:00,
2013-08-16 23:01:00,54.9,52.9,29.75,NNE,22,2.0,3.0,93,0.00,,,0.12,Weather View 32 v70,2013-08-17 07:01:00,
2013-08-16 23:06:00,54.7,52.7,29.74,NW,315,2.0,3.0,93,0.00,,,0.12,Weather View 32 v70,2013-08-17 07:06:00,
2013-08-16 23:11:00,54.5,52.5,29.74,NE,45,2.0,3.0,93,0.00,,,0.12,Weather View 32 v70,2013-08-17 07:11:00,
2013-08-16 23:16:00,54.5,52.5,29.74,North,0,2.0,3.0,93,0.00,,,0.12,Weather View 32 v70,2013-08-17 07:16:00,
2013-08-16 23:21:00,54.5,52.5,29.74,NNW,338,2.0,3.0,93,0.00,,,0.12,Weather View 32 v70,2013-08-17 07:21:00,
2013-08-16 23:26:00,54.3,52.3,29.74,West,270,2.0,3.0,93,0.00,,,0.12,Weather View 32 v70,2013-08-17 07:26:00,
2013-08-16 23:31:00,54.3,52.3,29.74,NNE,22,2.0,3.0,93,-0.12,,,0.12,Weather View 32 v70,2013-08-17 07:31:00,
2013-08-16 23:36:00,54.5,52.5,29.74,NNW,338,2.0,3.0,93,-0.12,,,0.12,Weather View 32 v70,2013-08-17 07:36:00,
2013-08-16 23:41:00,54.3,52.3,29.74,NE,45,2.0,3.0,93,-0.12,,,0.12,Weather View 32 v70,2013-08-17 07:41:00,
2013-08-16 23:46:00,54.3,52.3,29.74,NNE,22,2.0,3.0,93,-0.12,,,0.12,Weather View 32 v70,2013-08-17 07:46:00,
2013-08-16 23:51:00,54.1,52.2,29.74,NNE,22,2.0,3.0,93,-0.12,,,0.12,Weather View 32 v70,2013-08-17 07:51:00,
2013-08-16 23:56:00,54.1,52.2,29.74,NNE,22,2.0,3.0,93,0.00,,,0.12,Weather View 32 v70,2013-08-17 07:56:00,